createdAt,value
2023-04-09T00:00:30.832Z,29.95
2023-04-09T00:02:58.719Z,31.52
2023-04-09T00:05:27.069Z,30.33
2023-04-09T00:07:56.236Z,32.95
2023-04-09T00:10:24.175Z,33.63
2023-04-09T00:12:51.936Z,32.05
2023-04-09T00:15:30.033Z,30.50
2023-04-09T00:17:59.320Z,30.23
2023-04-09T00:20:27.355Z,33.20
2023-04-09T00:22:56.576Z,30.15
2023-04-09T00:25:24.287Z,31.10
2023-04-09T00:27:52.116Z,29.05
2023-04-09T00:30:19.821Z,30.70
2023-04-09T00:32:47.631Z,30.00
2023-04-09T00:35:16.265Z,30.70
2023-04-09T00:37:44.104Z,30.77
2023-04-09T00:40:13.424Z,29.50
2023-04-09T00:42:41.686Z,29.70
2023-04-09T00:45:09.994Z,26.60
2023-04-09T00:47:38.073Z,29.08
2023-04-09T00:50:06.676Z,30.08
2023-04-09T00:52:34.529Z,29.25
2023-04-09T00:55:05.332Z,30.90
2023-04-09T00:57:34.563Z,31.42
2023-04-09T01:00:04.458Z,32.72
2023-04-09T01:02:32.379Z,28.42
2023-04-09T01:05:00.751Z,28.20
2023-04-09T01:07:44.053Z,29.35
2023-04-09T01:10:20.628Z,29.00
2023-04-09T01:13:05.458Z,29.40
2023-04-09T01:15:38.946Z,29.65
2023-04-09T01:18:11.236Z,29.70
2023-04-09T01:20:41.761Z,28.73
2023-04-09T01:23:19.419Z,27.90
2023-04-09T01:26:05.610Z,28.15
2023-04-09T01:28:37.798Z,29.10
2023-04-09T01:31:11.787Z,29.25
2023-04-09T01:33:40.189Z,33.40
2023-04-09T01:36:08.954Z,29.50
2023-04-09T01:38:37.723Z,30.77
2023-04-09T01:41:06.915Z,29.33
2023-04-09T01:43:37.752Z,31.27
2023-04-09T01:46:05.781Z,31.17
2023-04-09T01:48:34.611Z,32.55
2023-04-09T01:51:02.776Z,36.20
2023-04-09T01:53:31.119Z,33.50
2023-04-09T01:56:00.578Z,32.63
2023-04-09T01:58:28.784Z,31.58
2023-04-09T02:01:04.527Z,32.95
2023-04-09T02:03:37.068Z,33.10
2023-04-09T02:06:10.423Z,34.22
2023-04-09T02:08:38.998Z,33.03
2023-04-09T02:11:11.215Z,32.88
2023-04-09T02:13:41.480Z,34.53
2023-04-09T02:16:13.594Z,34.28
2023-04-09T02:18:42.563Z,31.25
2023-04-09T02:21:11.087Z,35.17
2023-04-09T02:23:38.791Z,33.30
2023-04-09T02:26:07.043Z,32.92
2023-04-09T02:28:34.746Z,32.90
2023-04-09T02:31:02.510Z,32.70
2023-04-09T02:33:31.643Z,33.78
2023-04-09T02:35:59.376Z,34.45
2023-04-09T02:38:27.129Z,33.95
2023-04-09T02:40:54.810Z,33.42
2023-04-09T02:43:22.587Z,33.47
2023-04-09T02:45:50.389Z,30.70
2023-04-09T02:48:18.102Z,33.10
2023-04-09T02:50:47.159Z,32.80
2023-04-09T02:53:14.819Z,32.40
2023-04-09T02:55:42.594Z,33.42
2023-04-09T02:58:10.273Z,34.65
2023-04-09T03:00:38.099Z,35.63
2023-04-09T03:03:06.403Z,32.17
2023-04-09T03:05:34.127Z,31.67
2023-04-09T03:08:03.422Z,32.35
2023-04-09T03:10:31.148Z,31.85
2023-04-09T03:12:58.917Z,30.85
2023-04-09T03:15:27.107Z,34.08
2023-04-09T03:17:54.838Z,33.72
2023-04-09T03:20:22.701Z,35.40
2023-04-09T03:22:50.396Z,32.17
2023-04-09T03:25:21.233Z,31.85
2023-04-09T03:27:49.046Z,33.08
2023-04-09T03:30:16.796Z,34.75
2023-04-09T03:32:44.527Z,32.50
2023-04-09T03:35:12.316Z,34.13
2023-04-09T03:37:40.058Z,35.33
2023-04-09T03:40:08.852Z,32.75
2023-04-09T03:42:38.043Z,35.80
2023-04-09T03:45:06.816Z,33.10
2023-04-09T03:47:34.636Z,33.88
2023-04-09T03:50:02.369Z,36.05
2023-04-09T03:52:30.069Z,32.33
2023-04-09T03:54:58.193Z,36.90
2023-04-09T03:57:25.857Z,35.92
2023-04-09T03:59:54.951Z,34.67
2023-04-09T04:02:22.854Z,35.60
2023-04-09T04:04:50.782Z,36.80
2023-04-09T04:07:18.488Z,36.78
2023-04-09T04:09:46.336Z,36.80
2023-04-09T04:12:14.034Z,33.22
2023-04-09T04:14:41.764Z,36.58
2023-04-09T04:17:11.932Z,38.03
2023-04-09T04:19:39.647Z,36.20
2023-04-09T04:22:07.318Z,37.22
2023-04-09T04:24:34.957Z,37.28
2023-04-09T04:27:02.646Z,37.47
2023-04-09T04:29:30.420Z,35.65
2023-04-09T04:31:58.163Z,37.50
2023-04-09T04:34:27.444Z,38.60
2023-04-09T04:36:55.305Z,36.53
2023-04-09T04:39:23.090Z,35.55
2023-04-09T04:41:50.767Z,36.17
2023-04-09T04:44:18.492Z,39.70
2023-04-09T04:46:46.168Z,37.20
2023-04-09T04:49:13.913Z,37.75
2023-04-09T04:51:43.238Z,40.63
2023-04-09T04:54:11.032Z,42.40
2023-04-09T04:56:38.766Z,41.60
2023-04-09T04:59:06.456Z,41.97
2023-04-09T05:01:34.280Z,40.53
2023-04-09T05:04:03.162Z,41.75
2023-04-09T05:06:31.513Z,43.22
2023-04-09T05:09:01.576Z,39.88
2023-04-09T05:11:29.384Z,44.75
2023-04-09T05:13:57.222Z,38.83
2023-04-09T05:16:24.955Z,39.58
2023-04-09T05:18:52.830Z,42.53
2023-04-09T05:21:20.697Z,43.35
2023-04-09T05:23:48.516Z,40.92
2023-04-09T05:26:17.580Z,36.47
2023-04-09T05:28:45.500Z,33.70
2023-04-09T05:31:15.543Z,40.28
2023-04-09T05:33:43.538Z,37.30
2023-04-09T05:36:17.283Z,39.42
2023-04-09T05:38:45.229Z,39.60
2023-04-09T05:41:13.361Z,38.88
2023-04-09T05:43:42.811Z,41.75
2023-04-09T05:46:10.605Z,39.58
2023-04-09T05:48:38.817Z,38.25
2023-04-09T05:51:06.578Z,38.13
2023-04-09T05:53:35.144Z,37.53
2023-04-09T05:56:02.909Z,38.15
2023-04-09T05:58:30.915Z,33.25
2023-04-09T06:00:59.947Z,33.80
2023-04-09T06:03:28.801Z,36.78
2023-04-09T06:05:56.776Z,35.35
2023-04-09T06:08:24.617Z,40.22
2023-04-09T06:10:52.324Z,33.30
2023-04-09T06:13:20.052Z,43.20
2023-04-09T06:15:48.202Z,37.15
2023-04-09T06:18:17.997Z,36.30
2023-04-09T06:20:45.719Z,36.45
2023-04-09T06:23:13.494Z,37.65
2023-04-09T06:25:41.585Z,36.65
2023-04-09T06:28:09.275Z,36.40
2023-04-09T06:30:37.393Z,36.08
2023-04-09T06:33:05.330Z,34.95
2023-04-09T06:35:34.635Z,33.65
2023-04-09T06:38:02.580Z,34.08
2023-04-09T06:40:30.320Z,34.20
2023-04-09T06:42:58.028Z,34.63
2023-04-09T06:45:25.955Z,33.13
2023-04-09T06:47:53.810Z,33.22
2023-04-09T06:50:21.767Z,31.92
2023-04-09T06:52:52.551Z,32.28
2023-04-09T06:55:20.497Z,31.05
2023-04-09T06:57:48.291Z,30.92
2023-04-09T07:00:16.649Z,30.20
2023-04-09T07:02:44.692Z,29.90
2023-04-09T07:05:13.085Z,32.58
2023-04-09T07:07:41.019Z,29.40
2023-04-09T07:10:10.857Z,30.02
2023-04-09T07:12:38.628Z,29.08
2023-04-09T07:15:07.866Z,29.08
2023-04-09T07:17:36.816Z,28.60
2023-04-09T07:20:04.960Z,28.42
2023-04-09T07:22:32.769Z,27.80
2023-04-09T07:25:00.868Z,27.38
2023-04-09T07:27:30.255Z,27.55
2023-04-09T07:29:58.815Z,28.20
2023-04-09T07:32:28.179Z,26.88
2023-04-09T07:34:57.360Z,26.33
2023-04-09T07:37:27.753Z,22.27
2023-04-09T07:39:55.608Z,23.55
2023-04-09T07:42:23.517Z,21.42
2023-04-09T07:44:53.043Z,21.98
2023-04-09T07:47:20.928Z,22.27
2023-04-09T07:49:48.757Z,21.10
2023-04-09T07:52:16.762Z,19.40
2023-04-09T07:54:44.675Z,18.55
2023-04-09T07:57:12.618Z,35.15
2023-04-09T07:59:40.464Z,18.70
2023-04-09T08:02:11.648Z,18.35
2023-04-09T08:04:41.592Z,17.90
2023-04-09T08:07:09.473Z,17.77
2023-04-09T08:09:37.598Z,17.75
2023-04-09T08:12:05.747Z,17.98
2023-04-09T08:14:33.606Z,18.35
2023-04-09T08:17:02.720Z,17.35
2023-04-09T08:19:31.986Z,17.60
2023-04-09T08:21:59.831Z,17.20
2023-04-09T08:24:28.284Z,16.63
2023-04-09T08:26:56.668Z,17.08
2023-04-09T08:29:24.432Z,15.27
2023-04-09T08:31:52.640Z,15.98
2023-04-09T08:34:22.151Z,14.98
2023-04-09T08:36:51.690Z,14.65
2023-04-09T08:39:21.195Z,16.13
2023-04-09T08:41:49.413Z,15.02
2023-04-09T08:44:17.787Z,14.93
2023-04-09T08:46:45.756Z,13.45
2023-04-09T08:49:13.609Z,12.98
2023-04-09T08:51:46.630Z,12.88
2023-04-09T08:54:19.883Z,13.00
2023-04-09T08:56:48.359Z,13.43
2023-04-09T08:59:18.666Z,12.25
2023-04-09T09:01:48.072Z,12.80
2023-04-09T09:04:16.193Z,12.40
2023-04-09T09:06:46.698Z,11.50
2023-04-09T09:09:17.390Z,11.75
2023-04-09T09:11:46.812Z,10.95
2023-04-09T09:14:16.189Z,11.13
2023-04-09T09:16:46.670Z,11.23
2023-04-09T09:19:30.406Z,10.02
2023-04-09T09:21:58.859Z,8.10
2023-04-09T09:24:28.423Z,8.20
2023-04-09T09:26:57.471Z,8.82
2023-04-09T09:29:25.429Z,9.35
2023-04-09T09:31:54.730Z,8.10
2023-04-09T09:34:23.913Z,7.80
2023-04-09T09:36:51.732Z,8.45
2023-04-09T09:39:19.525Z,7.40
2023-04-09T09:41:48.833Z,7.43
2023-04-09T09:44:32.629Z,7.07
2023-04-09T09:47:01.344Z,6.75
2023-04-09T09:49:29.366Z,6.45
2023-04-09T09:51:58.614Z,6.90
2023-04-09T09:54:29.608Z,6.53
2023-04-09T09:57:05.928Z,6.35
2023-04-09T09:59:38.671Z,7.05
2023-04-09T10:02:07.819Z,7.30
2023-04-09T10:04:37.192Z,7.03
2023-04-09T10:07:08.798Z,7.20
2023-04-09T10:09:39.020Z,7.07
2023-04-09T10:12:13.159Z,6.80
2023-04-09T10:14:41.710Z,7.30
2023-04-09T10:17:09.544Z,7.00
2023-04-09T10:19:45.963Z,7.00
2023-04-09T10:22:22.926Z,9.45
2023-04-09T10:24:52.719Z,7.30
2023-04-09T10:27:22.472Z,17.60
2023-04-09T10:29:52.154Z,7.72
2023-04-09T10:32:26.580Z,6.63
2023-04-09T10:34:58.577Z,6.97
2023-04-09T10:37:28.078Z,7.30
2023-04-09T10:39:56.571Z,7.10
2023-04-09T10:42:31.874Z,7.10
2023-04-09T10:45:08.282Z,7.10
2023-04-09T10:47:38.105Z,7.05
2023-04-09T10:50:20.490Z,7.13
2023-04-09T10:52:52.872Z,7.72
2023-04-09T10:58:00.749Z,7.88
2023-04-09T11:00:28.969Z,6.82
2023-04-09T11:03:14.726Z,6.78
2023-04-09T11:05:44.824Z,7.00
2023-04-09T11:08:13.918Z,7.13
2023-04-09T11:10:44.613Z,6.45
2023-04-09T11:13:14.785Z,6.40
2023-04-09T11:15:44.953Z,6.75
2023-04-09T11:18:15.878Z,6.53
2023-04-09T11:20:44.351Z,7.28
2023-04-09T11:23:14.585Z,6.72
2023-04-09T11:25:42.625Z,6.60
2023-04-09T11:28:10.548Z,6.38
2023-04-09T11:30:40.109Z,5.95
2023-04-09T11:33:08.657Z,6.05
2023-04-09T11:35:37.519Z,6.30
2023-04-09T11:38:09.553Z,6.82
2023-04-09T11:40:43.410Z,6.88
2023-04-09T11:43:11.458Z,6.93
2023-04-09T11:45:41.191Z,6.47
2023-04-09T11:48:09.437Z,5.95
2023-04-09T11:50:38.601Z,6.63
2023-04-09T11:53:17.600Z,6.13
2023-04-09T11:55:48.848Z,6.78
2023-04-09T11:58:16.639Z,7.50
2023-04-09T12:00:46.508Z,6.50
2023-04-09T12:03:16.335Z,6.90
2023-04-09T12:05:50.832Z,6.35
2023-04-09T12:08:25.399Z,6.68
2023-04-09T12:10:53.799Z,6.20
2023-04-09T12:13:22.550Z,6.60
2023-04-09T12:15:51.705Z,6.10
2023-04-09T12:18:23.040Z,6.40
2023-04-09T12:20:51.060Z,6.53
2023-04-09T12:23:19.089Z,6.88
2023-04-09T12:25:47.768Z,6.50
2023-04-09T12:28:18.313Z,7.25
2023-04-09T12:30:46.701Z,7.30
2023-04-09T12:33:16.223Z,7.03
2023-04-09T12:35:44.105Z,6.28
2023-04-09T12:38:11.897Z,6.80
2023-04-09T12:40:40.659Z,7.10
2023-04-09T12:43:08.832Z,7.40
2023-04-09T12:45:36.834Z,7.13
2023-04-09T12:48:05.012Z,7.03
2023-04-09T12:50:34.405Z,7.03
2023-04-09T12:53:02.293Z,7.55
2023-04-09T12:55:30.122Z,6.88
2023-04-09T12:57:57.937Z,6.28
2023-04-09T13:00:25.934Z,6.65
2023-04-09T13:02:55.715Z,6.68
2023-04-09T13:05:23.836Z,6.60
2023-04-09T13:07:53.016Z,7.15
2023-04-09T13:10:20.869Z,8.18
2023-04-09T13:12:48.613Z,8.18
2023-04-09T13:15:16.611Z,7.07
2023-04-09T13:17:44.507Z,7.45
2023-04-09T13:20:12.633Z,7.13
2023-04-09T13:22:40.408Z,7.35
2023-04-09T13:25:10.325Z,7.13
2023-04-09T13:27:38.250Z,7.07
2023-04-09T13:30:07.655Z,8.50
2023-04-09T13:32:35.624Z,7.82
2023-04-09T13:35:03.542Z,7.30
2023-04-09T13:37:31.489Z,7.15
2023-04-09T13:39:59.278Z,17.98
2023-04-09T13:42:28.941Z,7.60
2023-04-09T13:44:57.456Z,7.30
2023-04-09T13:47:25.295Z,6.55
2023-04-09T13:49:53.147Z,6.90
2023-04-09T13:52:20.955Z,7.07
2023-04-09T13:54:49.549Z,6.90
2023-04-09T13:57:17.891Z,8.38
2023-04-09T13:59:47.206Z,8.65
2023-04-09T14:02:16.696Z,6.65
2023-04-09T14:04:45.162Z,7.18
2023-04-09T14:07:13.573Z,6.90
2023-04-09T14:09:41.528Z,6.80
2023-04-09T14:12:09.457Z,7.15
2023-04-09T14:14:37.450Z,6.90
2023-04-09T14:17:06.698Z,7.07
2023-04-09T14:19:34.903Z,6.53
2023-04-09T14:22:02.927Z,7.30
2023-04-09T14:24:31.412Z,7.30
2023-04-09T14:26:59.578Z,6.78
2023-04-09T14:29:27.475Z,6.80
2023-04-09T14:31:57.175Z,6.93
2023-04-09T14:34:26.781Z,7.03
2023-04-09T14:36:54.729Z,6.53
2023-04-09T14:39:22.581Z,7.47
2023-04-09T14:41:50.409Z,6.68
2023-04-09T14:44:18.338Z,6.55
2023-04-09T14:46:46.275Z,5.90
2023-04-09T14:49:14.062Z,6.40
2023-04-09T14:51:43.873Z,7.43
2023-04-09T14:54:11.667Z,7.25
2023-04-09T14:56:39.821Z,6.57
2023-04-09T14:59:08.101Z,7.20
2023-04-09T15:01:36.526Z,6.60
2023-04-09T15:04:04.473Z,6.45
2023-04-09T15:06:33.035Z,6.10
2023-04-09T15:09:02.555Z,6.55
2023-04-09T15:11:30.624Z,7.03
2023-04-09T15:13:58.303Z,7.03
2023-04-09T15:16:27.911Z,6.10
2023-04-09T15:18:58.549Z,6.40
2023-04-09T15:21:27.103Z,6.55
2023-04-09T15:23:56.323Z,6.32
2023-04-09T15:26:26.086Z,5.78
2023-04-09T15:28:55.706Z,6.38
2023-04-09T15:31:23.736Z,5.68
2023-04-09T15:33:51.529Z,5.97
2023-04-09T15:36:19.327Z,6.03
2023-04-09T15:38:47.230Z,5.90
2023-04-09T15:41:16.874Z,6.43
2023-04-09T15:43:46.087Z,5.90
2023-04-09T15:46:15.483Z,6.13
2023-04-09T15:48:43.450Z,5.60
2023-04-09T15:51:11.643Z,5.60
2023-04-09T15:53:39.487Z,5.88
2023-04-09T15:56:10.969Z,5.40
2023-04-09T16:01:09.748Z,5.80
2023-04-09T16:03:39.940Z,5.68
2023-04-09T16:06:09.379Z,7.63
2023-04-09T16:08:37.927Z,5.43
2023-04-09T16:11:06.914Z,5.45
2023-04-09T16:13:34.758Z,5.47
2023-04-09T16:16:02.770Z,5.28
2023-04-09T16:18:31.913Z,5.28
2023-04-09T16:20:59.755Z,5.00
2023-04-09T16:23:30.422Z,5.13
2023-04-09T16:25:58.573Z,5.22
2023-04-09T16:28:26.476Z,5.25
2023-04-09T16:30:55.309Z,4.90
2023-04-09T16:33:23.067Z,4.88
2023-04-09T16:35:52.294Z,4.72
2023-04-09T16:38:20.297Z,5.20
2023-04-09T16:40:48.314Z,5.35
2023-04-09T16:43:16.233Z,5.20
2023-04-09T16:45:44.264Z,5.20
2023-04-09T16:48:13.463Z,5.25
2023-04-09T16:50:41.468Z,5.40
2023-04-09T16:53:10.590Z,5.35
2023-04-09T16:55:38.957Z,5.10
2023-04-09T16:58:06.664Z,5.20
2023-04-09T17:00:35.430Z,5.20
2023-04-09T17:03:03.316Z,5.00
2023-04-09T17:05:31.550Z,5.25
2023-04-09T17:07:59.382Z,4.82
2023-04-09T17:10:28.730Z,5.78
2023-04-09T17:12:56.481Z,5.70
2023-04-09T17:15:26.959Z,5.05
2023-04-09T17:17:54.745Z,5.57
2023-04-09T17:20:24.248Z,5.07
2023-04-09T17:22:52.104Z,6.03
2023-04-09T17:25:20.650Z,6.90
2023-04-09T17:27:50.073Z,6.13
2023-04-09T17:30:18.033Z,6.45
2023-04-09T17:32:46.063Z,9.57
2023-04-09T17:35:14.011Z,7.30
2023-04-09T17:37:41.819Z,6.40
2023-04-09T17:40:12.579Z,7.28
2023-04-09T17:42:40.874Z,6.22
2023-04-09T17:45:11.896Z,6.35
2023-04-09T17:47:40.813Z,6.47
2023-04-09T17:50:09.956Z,6.35
2023-04-09T17:52:38.947Z,6.18
2023-04-09T17:55:08.249Z,7.63
2023-04-09T17:57:36.808Z,6.45
2023-04-09T18:00:05.425Z,7.20
2023-04-09T18:02:41.498Z,9.20
2023-04-09T18:05:10.834Z,8.70
2023-04-09T18:07:38.857Z,7.85
2023-04-09T18:10:07.681Z,7.30
2023-04-09T18:12:35.670Z,6.93
2023-04-09T18:15:04.166Z,6.55
2023-04-09T18:17:32.359Z,6.45
2023-04-09T18:20:01.709Z,6.20
2023-04-09T18:22:29.818Z,6.20
2023-04-09T18:24:58.286Z,6.07
2023-04-09T18:27:26.152Z,5.93
2023-04-09T18:29:53.957Z,6.25
2023-04-09T18:32:22.035Z,6.28
2023-04-09T18:34:49.770Z,6.65
2023-04-09T18:37:19.271Z,6.63
2023-04-09T18:39:47.395Z,6.07
2023-04-09T18:42:15.231Z,6.55
2023-04-09T18:44:44.592Z,6.45
2023-04-09T18:47:12.433Z,7.20
2023-04-09T18:49:40.474Z,6.25
2023-04-09T18:52:10.101Z,6.20
2023-04-09T18:54:39.812Z,6.70
2023-04-09T18:57:09.048Z,6.30
2023-04-09T18:59:37.328Z,7.53
2023-04-09T19:02:06.373Z,6.88
2023-04-09T19:04:36.484Z,6.50
2023-04-09T19:07:07.035Z,7.00
2023-04-09T19:09:37.679Z,6.57
2023-04-09T19:12:07.375Z,7.00
2023-04-09T19:14:36.579Z,7.13
2023-04-09T19:17:05.126Z,7.35
2023-04-09T19:19:33.229Z,7.05
2023-04-09T19:22:01.782Z,7.93
2023-04-09T19:24:29.761Z,7.65
2023-04-09T19:26:58.112Z,7.85
2023-04-09T19:29:27.348Z,8.25
2023-04-09T19:31:55.496Z,8.40
2023-04-09T19:34:23.478Z,8.00
2023-04-09T19:36:51.311Z,10.68
2023-04-09T19:39:22.397Z,8.65
2023-04-09T19:41:50.485Z,8.65
2023-04-09T19:44:21.590Z,8.02
2023-04-09T19:46:53.284Z,7.85
2023-04-09T19:49:21.343Z,7.90
2023-04-09T19:51:50.533Z,7.28
2023-04-09T19:54:21.751Z,8.00
2023-04-09T19:56:49.576Z,8.38
2023-04-09T19:59:17.434Z,7.90
2023-04-09T20:01:45.531Z,7.85
2023-04-09T20:04:14.738Z,8.18
2023-04-09T20:06:43.921Z,8.10
2023-04-09T20:09:12.384Z,8.50
2023-04-09T20:11:40.597Z,7.72
2023-04-09T20:14:08.541Z,9.05
2023-04-09T20:16:36.840Z,9.27
2023-04-09T20:19:04.712Z,8.95
2023-04-09T20:21:34.368Z,8.95
2023-04-09T20:24:02.494Z,8.38
2023-04-09T20:26:30.226Z,8.65
2023-04-09T20:28:58.106Z,8.73
2023-04-09T20:31:27.799Z,8.32
2023-04-09T20:33:55.785Z,9.02
2023-04-09T20:36:23.517Z,9.38
2023-04-09T20:38:54.254Z,9.48
2023-04-09T20:41:22.301Z,9.60
2023-04-09T20:43:50.072Z,10.15
2023-04-09T20:46:17.947Z,9.73
2023-04-09T20:48:46.001Z,10.50
2023-04-09T20:51:14.756Z,9.73
2023-04-09T20:53:42.838Z,9.93
2023-04-09T20:56:12.458Z,10.23
2023-04-09T20:58:40.386Z,10.75
2023-04-09T21:01:10.042Z,10.40
2023-04-09T21:03:40.062Z,10.77
2023-04-09T21:06:09.240Z,11.23
2023-04-09T21:08:38.478Z,10.32
2023-04-09T21:11:06.725Z,10.18
2023-04-09T21:13:53.616Z,10.23
2023-04-09T21:16:22.883Z,11.45
2023-04-09T21:18:51.512Z,31.80
2023-04-09T21:21:19.531Z,26.15
2023-04-09T21:23:47.266Z,20.52
2023-04-09T21:26:15.247Z,12.23
2023-04-09T21:28:44.698Z,12.23
2023-04-09T21:31:12.506Z,11.68
2023-04-09T21:33:40.568Z,11.43
2023-04-09T21:36:08.787Z,12.15
2023-04-09T21:38:36.771Z,13.07
2023-04-09T21:41:04.691Z,13.23
2023-04-09T21:43:34.527Z,13.27
2023-04-09T21:46:03.725Z,13.50
2023-04-09T21:48:31.767Z,13.10
2023-04-09T21:51:02.675Z,13.27
2023-04-09T21:53:31.769Z,12.55
2023-04-09T21:55:59.552Z,12.98
2023-04-09T21:58:31.205Z,12.20
2023-04-09T22:00:59.167Z,12.18
2023-04-09T22:03:28.703Z,12.40
2023-04-09T22:05:56.634Z,12.35
2023-04-09T22:08:24.400Z,12.70
2023-04-09T22:10:52.217Z,12.95
2023-04-09T22:13:20.101Z,12.13
2023-04-09T22:15:47.859Z,12.00
2023-04-09T22:18:15.785Z,12.52
2023-04-09T22:20:44.883Z,12.57
2023-04-09T22:23:12.572Z,11.93
2023-04-09T22:25:40.392Z,12.93
2023-04-09T22:28:08.159Z,13.55
2023-04-09T22:30:35.982Z,13.27
2023-04-09T22:33:03.798Z,14.10
2023-04-09T22:35:34.639Z,13.40
2023-04-09T22:38:04.065Z,13.68
2023-04-09T22:40:31.813Z,14.13
2023-04-09T22:42:59.593Z,14.30
2023-04-09T22:45:28.043Z,14.48
2023-04-09T22:47:55.858Z,14.02
2023-04-09T22:50:27.775Z,14.05
2023-04-09T22:52:55.526Z,12.70
2023-04-09T22:55:24.626Z,13.23
2023-04-09T22:57:52.345Z,12.45
2023-04-09T23:00:20.480Z,14.23
2023-04-09T23:02:50.731Z,13.05
2023-04-09T23:05:18.895Z,12.43
2023-04-09T23:07:47.191Z,12.90
2023-04-09T23:10:17.240Z,13.23
2023-04-09T23:12:46.520Z,12.80
2023-04-09T23:15:14.308Z,12.40
2023-04-09T23:17:43.033Z,11.95
2023-04-09T23:20:14.691Z,12.30
2023-04-09T23:22:42.936Z,12.07
2023-04-09T23:25:11.750Z,12.05
2023-04-09T23:27:39.533Z,11.52
2023-04-09T23:30:10.356Z,11.52
2023-04-09T23:32:38.259Z,12.35
2023-04-09T23:35:07.101Z,12.13
2023-04-09T23:37:34.847Z,12.27
2023-04-09T23:40:02.558Z,11.73
2023-04-09T23:42:32.960Z,12.82
2023-04-09T23:45:03.981Z,12.60
2023-04-09T23:47:34.315Z,12.25
2023-04-09T23:50:04.937Z,12.85
2023-04-09T23:52:34.577Z,13.48
2023-04-09T23:55:02.366Z,13.32
2023-04-09T23:57:30.251Z,13.07
2023-04-09T23:59:57.966Z,13.02
